sensor_id;sensor_type;location;lat;lon;timestamp;pressure;altitude;pressure_sealevel;temperature;humidity
56518;BME280;42419;48.760;2.322;2023-09-08T00:00:40;100870.34;;;27.83;40.07
56518;BME280;42419;48.760;2.322;2023-09-08T00:03:05;100853.88;;;27.73;40.08
56518;BME280;42419;48.760;2.322;2023-09-08T00:05:31;100854.13;;;27.70;40.04
56518;BME280;42419;48.760;2.322;2023-09-08T00:07:56;100870.56;;;27.80;40.16
56518;BME280;42419;48.760;2.322;2023-09-08T00:10:21;100874.16;;;27.80;40.53
56518;BME280;42419;48.760;2.322;2023-09-08T00:12:47;100876.09;;;27.78;40.43
56518;BME280;42419;48.760;2.322;2023-09-08T00:15:12;100872.50;;;27.78;40.29
56518;BME280;42419;48.760;2.322;2023-09-08T00:17:37;100876.19;;;27.77;39.79
56518;BME280;42419;48.760;2.322;2023-09-08T00:20:03;100874.34;;;27.77;40.34
56518;BME280;42419;48.760;2.322;2023-09-08T00:22:36;100863.97;;;27.71;40.26
56518;BME280;42419;48.760;2.322;2023-09-08T00:25:01;100870.03;;;27.75;40.14
56518;BME280;42419;48.760;2.322;2023-09-08T00:27:26;100871.00;;;27.74;40.25
56518;BME280;42419;48.760;2.322;2023-09-08T00:29:52;100878.16;;;27.75;40.12
56518;BME280;42419;48.760;2.322;2023-09-08T00:32:17;100868.38;;;27.72;40.32
56518;BME280;42419;48.760;2.322;2023-09-08T00:34:42;100875.53;;;27.73;40.22
56518;BME280;42419;48.760;2.322;2023-09-08T00:37:08;100870.13;;;27.73;40.39
56518;BME280;42419;48.760;2.322;2023-09-08T00:39:35;100866.56;;;27.73;40.44
56518;BME280;42419;48.760;2.322;2023-09-08T00:42:01;100859.63;;;27.68;40.40
56518;BME280;42419;48.760;2.322;2023-09-08T00:44:26;100882.91;;;27.71;40.26
56518;BME280;42419;48.760;2.322;2023-09-08T00:46:52;100871.22;;;27.71;40.08
56518;BME280;42419;48.760;2.322;2023-09-08T00:49:17;100880.22;;;27.71;40.29
56518;BME280;42419;48.760;2.322;2023-09-08T00:51:43;100872.28;;;27.68;40.24
56518;BME280;42419;48.760;2.322;2023-09-08T00:54:08;100870.34;;;27.70;40.46
56518;BME280;42419;48.760;2.322;2023-09-08T00:56:37;100829.25;;;27.38;40.28
56518;BME280;42419;48.760;2.322;2023-09-08T00:59:03;100862.88;;;27.61;40.41
56518;BME280;42419;48.760;2.322;2023-09-08T01:01:29;100872.41;;;27.66;40.29
56518;BME280;42419;48.760;2.322;2023-09-08T01:03:55;100874.25;;;27.66;40.42
56518;BME280;42419;48.760;2.322;2023-09-08T01:06:21;100875.22;;;27.65;40.22
56518;BME280;42419;48.760;2.322;2023-09-08T01:08:46;100869.91;;;27.63;40.36
56518;BME280;42419;48.760;2.322;2023-09-08T01:11:12;100871.00;;;27.61;40.49
56518;BME280;42419;48.760;2.322;2023-09-08T01:13:37;100870.75;;;27.64;40.29
56518;BME280;42419;48.760;2.322;2023-09-08T01:16:03;100862.75;;;27.62;40.45
56518;BME280;42419;48.760;2.322;2023-09-08T01:18:28;100857.34;;;27.62;40.34
56518;BME280;42419;48.760;2.322;2023-09-08T01:23:42;100863.06;;;27.58;40.57
56518;BME280;42419;48.760;2.322;2023-09-08T01:26:17;100860.34;;;27.58;40.30
56518;BME280;42419;48.760;2.322;2023-09-08T01:28:45;100853.25;;;27.57;40.23
56518;BME280;42419;48.760;2.322;2023-09-08T01:31:12;100858.53;;;27.58;40.53
56518;BME280;42419;48.760;2.322;2023-09-08T01:33:37;100864.94;;;27.57;40.24
56518;BME280;42419;48.760;2.322;2023-09-08T01:36:03;100869.47;;;27.57;40.37
56518;BME280;42419;48.760;2.322;2023-09-08T01:38:28;100845.16;;;27.43;40.81
56518;BME280;42419;48.760;2.322;2023-09-08T01:40:54;100851.16;;;27.48;40.51
56518;BME280;42419;48.760;2.322;2023-09-08T01:43:19;100868.69;;;27.55;40.59
56518;BME280;42419;48.760;2.322;2023-09-08T01:45:44;100875.94;;;27.54;40.63
56518;BME280;42419;48.760;2.322;2023-09-08T01:48:10;100861.13;;;27.47;41.14
56518;BME280;42419;48.760;2.322;2023-09-08T01:50:35;100862.53;;;27.53;40.77
56518;BME280;42419;48.760;2.322;2023-09-08T01:53:00;100856.44;;;27.49;40.77
56518;BME280;42419;48.760;2.322;2023-09-08T01:55:25;100853.19;;;27.44;40.70
56518;BME280;42419;48.760;2.322;2023-09-08T01:57:51;100861.13;;;27.47;40.71
56518;BME280;42419;48.760;2.322;2023-09-08T02:00:17;100862.63;;;27.51;40.54
56518;BME280;42419;48.760;2.322;2023-09-08T02:02:42;100867.19;;;27.51;40.34
56518;BME280;42419;48.760;2.322;2023-09-08T02:05:08;100866.22;;;27.52;40.79
56518;BME280;42419;48.760;2.322;2023-09-08T02:07:34;100867.19;;;27.51;40.78
56518;BME280;42419;48.760;2.322;2023-09-08T02:09:59;100845.06;;;27.44;40.57
56518;BME280;42419;48.760;2.322;2023-09-08T02:12:24;100862.63;;;27.51;40.78
56518;BME280;42419;48.760;2.322;2023-09-08T02:14:50;100859.06;;;27.51;40.74
56518;BME280;42419;48.760;2.322;2023-09-08T02:17:17;100862.72;;;27.50;40.64
56518;BME280;42419;48.760;2.322;2023-09-08T02:19:42;100871.84;;;27.49;40.82
56518;BME280;42419;48.760;2.322;2023-09-08T02:22:07;100880.78;;;27.49;40.78
56518;BME280;42419;48.760;2.322;2023-09-08T02:24:33;100878.59;;;27.42;40.58
56518;BME280;42419;48.760;2.322;2023-09-08T02:26:58;100879.09;;;27.48;40.83
56518;BME280;42419;48.760;2.322;2023-09-08T02:29:23;100879.19;;;27.47;40.85
56518;BME280;42419;48.760;2.322;2023-09-08T02:31:49;100881.19;;;27.43;40.75
56518;BME280;42419;48.760;2.322;2023-09-08T02:34:14;100867.88;;;27.40;40.83
56518;BME280;42419;48.760;2.322;2023-09-08T02:36:39;100881.97;;;27.45;40.69
56518;BME280;42419;48.760;2.322;2023-09-08T02:39:05;100870.56;;;27.40;40.85
56518;BME280;42419;48.760;2.322;2023-09-08T02:41:30;100876.19;;;27.37;40.85
56518;BME280;42419;48.760;2.322;2023-09-08T02:43:56;100883.91;;;27.43;40.68
56518;BME280;42419;48.760;2.322;2023-09-08T02:46:21;100886.69;;;27.42;40.89
56518;BME280;42419;48.760;2.322;2023-09-08T02:48:46;100885.97;;;27.40;40.68
56518;BME280;42419;48.760;2.322;2023-09-08T02:51:12;100882.47;;;27.38;40.68
56518;BME280;42419;48.760;2.322;2023-09-08T02:53:37;100874.69;;;27.33;40.83
56518;BME280;42419;48.760;2.322;2023-09-08T02:56:03;100886.94;;;27.39;40.78
56518;BME280;42419;48.760;2.322;2023-09-08T02:58:30;100887.03;;;27.37;40.88
56518;BME280;42419;48.760;2.322;2023-09-08T03:01:09;100884.53;;;27.34;40.81
56518;BME280;42419;48.760;2.322;2023-09-08T03:03:35;100872.38;;;27.27;41.29
56518;BME280;42419;48.760;2.322;2023-09-08T03:06:00;100887.13;;;27.36;40.73
56518;BME280;42419;48.760;2.322;2023-09-08T03:08:28;100891.69;;;27.35;40.91
56518;BME280;42419;48.760;2.322;2023-09-08T03:10:55;100895.22;;;27.36;40.89
56518;BME280;42419;48.760;2.322;2023-09-08T03:13:21;100889.94;;;27.34;40.95
56518;BME280;42419;48.760;2.322;2023-09-08T03:15:47;100884.72;;;27.31;40.70
56518;BME280;42419;48.760;2.322;2023-09-08T03:18:12;100884.63;;;27.33;40.63
56518;BME280;42419;48.760;2.322;2023-09-08T03:20:37;100882.69;;;27.35;40.95
56518;BME280;42419;48.760;2.322;2023-09-08T03:23:03;100882.69;;;27.35;40.99
56518;BME280;42419;48.760;2.322;2023-09-08T03:25:28;100865.03;;;27.29;41.00
56518;BME280;42419;48.760;2.322;2023-09-08T03:27:53;100875.56;;;27.34;40.92
56518;BME280;42419;48.760;2.322;2023-09-08T03:30:18;100882.78;;;27.33;41.18
56518;BME280;42419;48.760;2.322;2023-09-08T03:32:44;100871.53;;;27.27;41.06
56518;BME280;42419;48.760;2.322;2023-09-08T03:35:10;100877.47;;;27.32;40.72
56518;BME280;42419;48.760;2.322;2023-09-08T03:37:35;100883.75;;;27.32;40.77
56518;BME280;42419;48.760;2.322;2023-09-08T03:40:01;100882.00;;;27.31;40.97
56518;BME280;42419;48.760;2.322;2023-09-08T03:42:26;100880.19;;;27.32;41.05
56518;BME280;42419;48.760;2.322;2023-09-08T03:44:51;100875.78;;;27.31;41.02
56518;BME280;42419;48.760;2.322;2023-09-08T03:47:17;100884.72;;;27.31;40.96
56518;BME280;42419;48.760;2.322;2023-09-08T03:49:42;100876.59;;;27.31;41.03
56518;BME280;42419;48.760;2.322;2023-09-08T03:52:07;100870.53;;;27.28;40.93
56518;BME280;42419;48.760;2.322;2023-09-08T03:54:33;100870.19;;;27.19;41.12
56518;BME280;42419;48.760;2.322;2023-09-08T03:56:58;100880.31;;;27.30;41.00
56518;BME280;42419;48.760;2.322;2023-09-08T03:59:23;100864.56;;;27.22;41.17
56518;BME280;42419;48.760;2.322;2023-09-08T04:01:48;100880.41;;;27.29;40.83
56518;BME280;42419;48.760;2.322;2023-09-08T04:04:14;100809.16;;;26.90;40.97
56518;BME280;42419;48.760;2.322;2023-09-08T04:06:39;100872.38;;;27.27;41.08
56518;BME280;42419;48.760;2.322;2023-09-08T04:09:04;100865.25;;;27.26;41.10
56518;BME280;42419;48.760;2.322;2023-09-08T04:11:30;100839.66;;;27.05;41.04
56518;BME280;42419;48.760;2.322;2023-09-08T04:13:55;100875.22;;;27.26;40.96
56518;BME280;42419;48.760;2.322;2023-09-08T04:16:20;100875.22;;;27.26;40.99
56518;BME280;42419;48.760;2.322;2023-09-08T04:18:46;100864.88;;;27.18;41.16
56518;BME280;42419;48.760;2.322;2023-09-08T04:21:11;100850.72;;;27.14;41.16
56518;BME280;42419;48.760;2.322;2023-09-08T04:23:36;100869.16;;;27.22;40.98
56518;BME280;42419;48.760;2.322;2023-09-08T04:26:02;100864.88;;;27.18;41.05
56518;BME280;42419;48.760;2.322;2023-09-08T04:28:27;100878.09;;;27.22;41.12
56518;BME280;42419;48.760;2.322;2023-09-08T04:30:52;100860.88;;;27.11;40.88
56518;BME280;42419;48.760;2.322;2023-09-08T04:33:18;100877.44;;;27.19;41.23
56518;BME280;42419;48.760;2.322;2023-09-08T04:35:43;100876.56;;;27.18;40.94
56518;BME280;42419;48.760;2.322;2023-09-08T04:38:08;100861.66;;;27.13;40.82
56518;BME280;42419;48.760;2.322;2023-09-08T04:40:34;100861.75;;;27.11;40.91
56518;BME280;42419;48.760;2.322;2023-09-08T04:43:00;100879.41;;;27.17;41.47
56518;BME280;42419;48.760;2.322;2023-09-08T04:45:25;100875.81;;;27.16;40.99
56518;BME280;42419;48.760;2.322;2023-09-08T04:47:50;100870.41;;;27.16;40.91
56518;BME280;42419;48.760;2.322;2023-09-08T04:50:16;100875.81;;;27.16;41.07
56518;BME280;42419;48.760;2.322;2023-09-08T04:52:41;100870.50;;;27.15;41.14
56518;BME280;42419;48.760;2.322;2023-09-08T04:55:07;100857.63;;;27.06;41.19
56518;BME280;42419;48.760;2.322;2023-09-08T04:57:32;100862.50;;;27.13;41.45
56518;BME280;42419;48.760;2.322;2023-09-08T04:59:58;100874.31;;;27.12;41.13
56518;BME280;42419;48.760;2.322;2023-09-08T05:02:23;100873.22;;;27.15;41.32
56518;BME280;42419;48.760;2.322;2023-09-08T05:04:48;100870.59;;;27.13;41.37
56518;BME280;42419;48.760;2.322;2023-09-08T05:07:14;100879.59;;;27.14;41.28
56518;BME280;42419;48.760;2.322;2023-09-08T05:09:39;100856.00;;;27.03;41.54
56518;BME280;42419;48.760;2.322;2023-09-08T05:12:04;100882.28;;;27.14;41.55
56518;BME280;42419;48.760;2.322;2023-09-08T05:14:30;100880.59;;;27.13;41.25
56518;BME280;42419;48.760;2.322;2023-09-08T05:16:56;100873.22;;;27.15;41.53
56518;BME280;42419;48.760;2.322;2023-09-08T05:19:22;100884.13;;;27.13;41.61
56518;BME280;42419;48.760;2.322;2023-09-08T05:21:50;100884.13;;;27.13;41.83
56518;BME280;42419;48.760;2.322;2023-09-08T05:24:16;100879.59;;;27.14;41.58
56518;BME280;42419;48.760;2.322;2023-09-08T05:26:41;100883.16;;;27.14;41.78
56518;BME280;42419;48.760;2.322;2023-09-08T05:29:06;100881.22;;;27.16;42.09
56518;BME280;42419;48.760;2.322;2023-09-08T05:31:32;100867.25;;;27.10;42.26
56518;BME280;42419;48.760;2.322;2023-09-08T05:33:57;100882.97;;;27.17;41.97
56518;BME280;42419;48.760;2.322;2023-09-08T05:36:23;100874.50;;;27.09;41.97
56518;BME280;42419;48.760;2.322;2023-09-08T05:38:48;100872.00;;;27.06;41.74
56518;BME280;42419;48.760;2.322;2023-09-08T05:41:13;100866.34;;;26.97;41.93
56518;BME280;42419;48.760;2.322;2023-09-08T05:43:39;100886.59;;;27.04;41.84
56518;BME280;42419;48.760;2.322;2023-09-08T05:46:04;100881.13;;;26.91;42.00
56518;BME280;42419;48.760;2.322;2023-09-08T05:48:29;100884.50;;;26.80;42.27
56518;BME280;42419;48.760;2.322;2023-09-08T05:50:55;100887.31;;;26.65;42.52
56518;BME280;42419;48.760;2.322;2023-09-08T05:53:20;100867.41;;;26.53;42.47
56518;BME280;42419;48.760;2.322;2023-09-08T05:55:45;100894.97;;;26.58;43.15
56518;BME280;42419;48.760;2.322;2023-09-08T05:58:11;100896.31;;;26.51;42.91
56518;BME280;42419;48.760;2.322;2023-09-08T06:00:36;100886.41;;;26.38;43.00
56518;BME280;42419;48.760;2.322;2023-09-08T06:03:01;100897.69;;;26.44;43.24
56518;BME280;42419;48.760;2.322;2023-09-08T06:05:27;100901.47;;;26.42;43.16
56518;BME280;42419;48.760;2.322;2023-09-08T06:07:56;100893.94;;;26.32;43.49
56518;BME280;42419;48.760;2.322;2023-09-08T06:10:22;100896.81;;;26.29;43.02
56518;BME280;42419;48.760;2.322;2023-09-08T06:12:47;100902.81;;;26.34;43.23
56518;BME280;42419;48.760;2.322;2023-09-08T06:15:16;100906.47;;;26.33;43.56
56518;BME280;42419;48.760;2.322;2023-09-08T06:17:42;100903.00;;;26.31;43.40
56518;BME280;42419;48.760;2.322;2023-09-08T06:20:07;100885.53;;;26.23;43.70
56518;BME280;42419;48.760;2.322;2023-09-08T06:22:33;100903.56;;;26.22;43.80
56518;BME280;42419;48.760;2.322;2023-09-08T06:24:59;100900.19;;;26.19;44.01
56518;BME280;42419;48.760;2.322;2023-09-08T06:27:24;100882.03;;;26.07;44.30
56518;BME280;42419;48.760;2.322;2023-09-08T06:29:50;100902.38;;;26.12;44.50
56518;BME280;42419;48.760;2.322;2023-09-08T06:32:19;100902.47;;;26.11;44.33
56518;BME280;42419;48.760;2.322;2023-09-08T06:34:47;100897.28;;;26.08;44.42
56518;BME280;42419;48.760;2.322;2023-09-08T06:37:15;100907.31;;;26.06;44.77
56518;BME280;42419;48.760;2.322;2023-09-08T06:39:41;100907.41;;;26.04;44.42
56518;BME280;42419;48.760;2.322;2023-09-08T06:42:06;100907.41;;;26.04;44.89
56518;BME280;42419;48.760;2.322;2023-09-08T06:44:31;100910.09;;;26.04;45.05
56518;BME280;42419;48.760;2.322;2023-09-08T06:46:57;100912.00;;;26.02;44.81
56518;BME280;42419;48.760;2.322;2023-09-08T06:49:22;100904.91;;;26.01;45.09
56518;BME280;42419;48.760;2.322;2023-09-08T06:51:47;100893.69;;;25.93;44.74
56518;BME280;42419;48.760;2.322;2023-09-08T06:54:14;100900.75;;;25.96;44.89
56518;BME280;42419;48.760;2.322;2023-09-08T06:56:39;100907.38;;;25.90;45.02
56518;BME280;42419;48.760;2.322;2023-09-08T06:59:05;100911.72;;;25.92;44.91
56518;BME280;42419;48.760;2.322;2023-09-08T07:01:30;100920.22;;;26.01;44.99
56518;BME280;42419;48.760;2.322;2023-09-08T07:03:56;100903.63;;;25.92;44.71
56518;BME280;42419;48.760;2.322;2023-09-08T07:06:24;100913.16;;;25.98;44.98
56518;BME280;42419;48.760;2.322;2023-09-08T07:08:53;100907.59;;;26.01;45.40
56518;BME280;42419;48.760;2.322;2023-09-08T07:11:18;100922.72;;;26.04;45.35
56518;BME280;42419;48.760;2.322;2023-09-08T07:13:44;100915.41;;;26.06;45.24
56518;BME280;42419;48.760;2.322;2023-09-08T07:16:10;100920.69;;;26.07;45.23
56518;BME280;42419;48.760;2.322;2023-09-08T07:18:35;100919.66;;;26.10;45.37
56518;BME280;42419;48.760;2.322;2023-09-08T07:21:02;100915.78;;;26.14;45.25
56518;BME280;42419;48.760;2.322;2023-09-08T07:23:28;100917.41;;;26.16;45.08
56518;BME280;42419;48.760;2.322;2023-09-08T07:25:56;100917.34;;;26.18;45.01
56518;BME280;42419;48.760;2.322;2023-09-08T07:28:24;100909.16;;;26.19;45.04
56518;BME280;42419;48.760;2.322;2023-09-08T07:30:49;100919.34;;;26.28;44.66
56518;BME280;42419;48.760;2.322;2023-09-08T07:33:15;100913.03;;;26.29;44.65
56518;BME280;42419;48.760;2.322;2023-09-08T07:35:40;100916.38;;;26.33;44.81
56518;BME280;42419;48.760;2.322;2023-09-08T07:38:08;100915.13;;;26.39;44.69
56518;BME280;42419;48.760;2.322;2023-09-08T07:40:34;100930.97;;;26.45;44.37
56518;BME280;42419;48.760;2.322;2023-09-08T07:42:59;100932.50;;;26.49;44.25
56518;BME280;42419;48.760;2.322;2023-09-08T07:45:25;100927.88;;;26.51;44.04
56518;BME280;42419;48.760;2.322;2023-09-08T07:47:53;100931.25;;;26.54;44.13
56518;BME280;42419;48.760;2.322;2023-09-08T07:50:21;100922.47;;;26.51;44.27
56518;BME280;42419;48.760;2.322;2023-09-08T07:52:48;100929.88;;;26.61;44.07
56518;BME280;42419;48.760;2.322;2023-09-08T07:55:15;100915.34;;;26.64;43.91
56518;BME280;42419;48.760;2.322;2023-09-08T07:57:44;100910.31;;;26.58;44.38
56518;BME280;42419;48.760;2.322;2023-09-08T08:00:12;100927.16;;;26.75;44.01
56518;BME280;42419;48.760;2.322;2023-09-08T08:02:46;100927.06;;;26.77;43.81
56518;BME280;42419;48.760;2.322;2023-09-08T08:05:12;100917.97;;;26.78;43.85
56518;BME280;42419;48.760;2.322;2023-09-08T08:07:38;100928.91;;;26.91;44.03
56518;BME280;42419;48.760;2.322;2023-09-08T08:10:04;100923.09;;;26.97;43.94
56518;BME280;42419;48.760;2.322;2023-09-08T08:12:30;100921.16;;;26.99;43.65
56518;BME280;42419;48.760;2.322;2023-09-08T08:14:55;100920.66;;;27.06;43.60
56518;BME280;42419;48.760;2.322;2023-09-08T08:17:21;100913.50;;;27.05;43.55
56518;BME280;42419;48.760;2.322;2023-09-08T08:19:46;100926.97;;;27.19;43.52
56518;BME280;42419;48.760;2.322;2023-09-08T08:22:12;100926.59;;;27.26;43.72
56518;BME280;42419;48.760;2.322;2023-09-08T08:24:37;100932.34;;;27.34;43.01
56518;BME280;42419;48.760;2.322;2023-09-08T08:27:03;100927.50;;;27.39;43.04
56518;BME280;42419;48.760;2.322;2023-09-08T08:29:29;100915.81;;;27.38;42.78
56518;BME280;42419;48.760;2.322;2023-09-08T08:31:54;100936.44;;;27.53;42.66
56518;BME280;42419;48.760;2.322;2023-09-08T08:34:20;100939.59;;;27.60;42.77
56518;BME280;42419;48.760;2.322;2023-09-08T08:36:45;100931.47;;;27.60;42.55
56518;BME280;42419;48.760;2.322;2023-09-08T08:39:10;100942.22;;;27.74;42.68
56518;BME280;42419;48.760;2.322;2023-09-08T08:41:36;100941.03;;;27.78;42.59
56518;BME280;42419;48.760;2.322;2023-09-08T08:44:06;100945.81;;;27.87;42.45
56518;BME280;42419;48.760;2.322;2023-09-08T08:46:33;100937.47;;;27.90;42.20
56518;BME280;42419;48.760;2.322;2023-09-08T08:49:01;100948.53;;;28.00;42.43
56518;BME280;42419;48.760;2.322;2023-09-08T08:51:28;100945.31;;;28.07;42.12
56518;BME280;42419;48.760;2.322;2023-09-08T08:53:55;100948.47;;;28.14;42.20
56518;BME280;42419;48.760;2.322;2023-09-08T08:56:21;100944.47;;;28.20;42.17
56518;BME280;42419;48.760;2.322;2023-09-08T08:58:47;100949.25;;;28.29;42.27
56518;BME280;42419;48.760;2.322;2023-09-08T09:01:15;100934.81;;;28.28;42.17
56518;BME280;42419;48.760;2.322;2023-09-08T09:03:44;100944.69;;;28.42;41.45
56518;BME280;42419;48.760;2.322;2023-09-08T09:06:10;100945.97;;;28.49;41.67
56518;BME280;42419;48.760;2.322;2023-09-08T09:08:37;100934.88;;;28.52;42.10
56518;BME280;42419;48.760;2.322;2023-09-08T09:11:03;100943.91;;;28.65;41.61
56518;BME280;42419;48.760;2.322;2023-09-08T09:13:29;100947.03;;;28.72;41.80
56518;BME280;42419;48.760;2.322;2023-09-08T09:15:58;100906.66;;;28.56;41.48
56518;BME280;42419;48.760;2.322;2023-09-08T09:18:25;100917.47;;;28.69;40.81
56518;BME280;42419;48.760;2.322;2023-09-08T09:20:55;100935.59;;;28.92;41.28
56518;BME280;42419;48.760;2.322;2023-09-08T09:23:31;100942.06;;;29.02;40.86
56518;BME280;42419;48.760;2.322;2023-09-08T09:25:58;100923.97;;;29.03;40.65
56518;BME280;42419;48.760;2.322;2023-09-08T09:28:24;100942.72;;;29.18;39.90
56518;BME280;42419;48.760;2.322;2023-09-08T09:30:51;100892.53;;;29.00;40.14
56518;BME280;42419;48.760;2.322;2023-09-08T09:33:17;100931.19;;;29.27;39.63
56518;BME280;42419;48.760;2.322;2023-09-08T09:35:47;100927.09;;;29.33;39.94
56518;BME280;42419;48.760;2.322;2023-09-08T09:38:13;100921.13;;;29.40;39.86
56518;BME280;42419;48.760;2.322;2023-09-08T09:40:39;100938.94;;;29.56;39.58
56518;BME280;42419;48.760;2.322;2023-09-08T09:43:05;100934.66;;;29.64;38.97
56518;BME280;42419;48.760;2.322;2023-09-08T09:45:33;100932.56;;;29.68;39.61
56518;BME280;42419;48.760;2.322;2023-09-08T09:47:59;100937.09;;;29.80;39.16
56518;BME280;42419;48.760;2.322;2023-09-08T09:50:32;100936.59;;;29.86;38.48
56518;BME280;42419;48.760;2.322;2023-09-08T09:53:07;100930.44;;;29.95;38.77
56518;BME280;42419;48.760;2.322;2023-09-08T09:55:33;100868.44;;;29.67;38.54
56518;BME280;42419;48.760;2.322;2023-09-08T09:57:59;100940.66;;;30.15;38.51
56518;BME280;42419;48.760;2.322;2023-09-08T10:00:27;100935.34;;;30.25;38.08
56518;BME280;42419;48.760;2.322;2023-09-08T10:02:54;100926.09;;;30.27;37.54
56518;BME280;42419;48.760;2.322;2023-09-08T10:05:19;100901.13;;;30.22;37.63
56518;BME280;42419;48.760;2.322;2023-09-08T10:07:47;100902.75;;;30.36;37.82
56518;BME280;42419;48.760;2.322;2023-09-08T10:10:14;100920.53;;;30.51;37.55
56518;BME280;42419;48.760;2.322;2023-09-08T10:12:43;100926.63;;;30.66;37.52
56518;BME280;42419;48.760;2.322;2023-09-08T10:15:10;100928.72;;;30.73;36.97
56518;BME280;42419;48.760;2.322;2023-09-08T10:17:43;100925.34;;;30.81;37.25
56518;BME280;42419;48.760;2.322;2023-09-08T10:20:11;100929.16;;;30.90;36.78
56518;BME280;42419;48.760;2.322;2023-09-08T10:22:41;100936.56;;;30.99;36.57
56518;BME280;42419;48.760;2.322;2023-09-08T10:25:08;100925.03;;;31.06;36.40
56518;BME280;42419;48.760;2.322;2023-09-08T10:27:34;100928.00;;;31.14;35.90
56518;BME280;42419;48.760;2.322;2023-09-08T10:30:07;100936.53;;;31.21;36.08
56518;BME280;42419;48.760;2.322;2023-09-08T10:32:34;100914.06;;;31.19;35.33
56518;BME280;42419;48.760;2.322;2023-09-08T10:35:01;100920.09;;;31.23;35.29
56518;BME280;42419;48.760;2.322;2023-09-08T10:37:27;100930.94;;;31.34;35.05
56518;BME280;42419;48.760;2.322;2023-09-08T10:39:55;100914.97;;;31.29;34.65
56518;BME280;42419;48.760;2.322;2023-09-08T10:42:22;100918.94;;;31.36;34.88
56518;BME280;42419;48.760;2.322;2023-09-08T10:47:41;100922.53;;;31.37;34.48
56518;BME280;42419;48.760;2.322;2023-09-08T10:50:19;100905.56;;;31.33;34.54
56518;BME280;42419;48.760;2.322;2023-09-08T10:53:07;100918.41;;;31.42;34.27
56518;BME280;42419;48.760;2.322;2023-09-08T10:55:56;100920.72;;;31.47;34.46
56518;BME280;42419;48.760;2.322;2023-09-08T10:58:36;100911.69;;;31.46;34.36
56518;BME280;42419;48.760;2.322;2023-09-08T11:01:04;100911.06;;;31.54;34.33
56518;BME280;42419;48.760;2.322;2023-09-08T11:06:08;100911.78;;;31.56;34.43
56518;BME280;42419;48.760;2.322;2023-09-08T11:08:36;100890.66;;;31.48;34.33
56518;BME280;42419;48.760;2.322;2023-09-08T11:11:02;100906.56;;;31.64;34.16
56518;BME280;42419;48.760;2.322;2023-09-08T11:13:28;100901.88;;;31.66;34.50
56518;BME280;42419;48.760;2.322;2023-09-08T11:15:54;100897.16;;;31.68;33.97
56518;BME280;42419;48.760;2.322;2023-09-08T11:18:29;100898.25;;;31.66;34.01
56518;BME280;42419;48.760;2.322;2023-09-08T11:20:56;100901.34;;;31.72;33.74
56518;BME280;42419;48.760;2.322;2023-09-08T11:23:22;100904.94;;;31.73;33.68
56518;BME280;42419;48.760;2.322;2023-09-08T11:25:49;100901.06;;;31.75;33.48
56518;BME280;42419;48.760;2.322;2023-09-08T11:28:16;100895.50;;;31.77;33.00
56518;BME280;42419;48.760;2.322;2023-09-08T11:30:42;100879.19;;;31.66;33.44
56518;BME280;42419;48.760;2.322;2023-09-08T11:33:17;100898.81;;;31.80;32.89
56518;BME280;42419;48.760;2.322;2023-09-08T11:35:46;100894.94;;;31.83;32.83
56518;BME280;42419;48.760;2.322;2023-09-08T11:38:11;100903.13;;;31.83;33.00
56518;BME280;42419;48.760;2.322;2023-09-08T11:40:37;100884.72;;;31.75;32.48
56518;BME280;42419;48.760;2.322;2023-09-08T11:43:05;100896.41;;;31.87;32.39
56518;BME280;42419;48.760;2.322;2023-09-08T11:45:34;100895.41;;;31.88;32.27
56518;BME280;42419;48.760;2.322;2023-09-08T11:48:00;100885.66;;;31.85;31.81
56518;BME280;42419;48.760;2.322;2023-09-08T11:50:25;100903.94;;;31.94;32.00
56518;BME280;42419;48.760;2.322;2023-09-08T11:52:53;100884.78;;;31.85;32.04
56518;BME280;42419;48.760;2.322;2023-09-08T11:55:19;100892.88;;;31.96;31.99
56518;BME280;42419;48.760;2.322;2023-09-08T11:57:48;100910.69;;;32.00;32.11
56518;BME280;42419;48.760;2.322;2023-09-08T12:00:15;100872.22;;;31.93;32.08
56518;BME280;42419;48.760;2.322;2023-09-08T12:02:41;100884.31;;;32.00;31.67
56518;BME280;42419;48.760;2.322;2023-09-08T12:05:33;100879.72;;;32.01;31.63
56518;BME280;42419;48.760;2.322;2023-09-08T12:07:59;100886.50;;;32.07;31.71
56518;BME280;42419;48.760;2.322;2023-09-08T12:10:24;100859.94;;;31.99;31.49
56518;BME280;42419;48.760;2.322;2023-09-08T12:12:52;100871.38;;;31.93;32.17
56518;BME280;42419;48.760;2.322;2023-09-08T12:15:37;100859.91;;;31.69;32.77
56518;BME280;42419;48.760;2.322;2023-09-08T12:18:05;100875.22;;;31.70;32.59
56518;BME280;42419;48.760;2.322;2023-09-08T12:20:31;100879.56;;;31.61;33.02
56518;BME280;42419;48.760;2.322;2023-09-08T12:23:01;100873.34;;;31.49;33.15
56518;BME280;42419;48.760;2.322;2023-09-08T12:25:27;100853.03;;;31.33;33.14
56518;BME280;42419;48.760;2.322;2023-09-08T12:27:54;100865.75;;;31.32;33.07
56518;BME280;42419;48.760;2.322;2023-09-08T12:30:21;100861.97;;;31.24;33.47
56518;BME280;42419;48.760;2.322;2023-09-08T12:32:48;100863.59;;;31.15;33.72
56518;BME280;42419;48.760;2.322;2023-09-08T12:35:21;100855.19;;;31.07;33.53
56518;BME280;42419;48.760;2.322;2023-09-08T12:38:00;100842.63;;;30.95;33.69
56518;BME280;42419;48.760;2.322;2023-09-08T12:40:26;100857.81;;;30.97;34.37
56518;BME280;42419;48.760;2.322;2023-09-08T12:42:53;100861.94;;;30.92;33.83
56518;BME280;42419;48.760;2.322;2023-09-08T12:45:20;100857.84;;;30.86;34.25
56518;BME280;42419;48.760;2.322;2023-09-08T12:47:45;100858.25;;;30.82;34.42
56518;BME280;42419;48.760;2.322;2023-09-08T12:50:11;100852.44;;;30.75;34.34
56518;BME280;42419;48.760;2.322;2023-09-08T12:52:38;100848.00;;;30.74;34.31
56518;BME280;42419;48.760;2.322;2023-09-08T12:55:03;100850.09;;;30.70;34.70